Time;durP1;ratioP1;P1;durP2;ratioP2;P2;SDS_P1;SDS_P2;PMS_P1;PMS_P2;Temp;Humidity;BMP_temperature;BMP_pressure;BME280_temperature;BME280_humidity;BME280_pressure;Samples;Min_cycle;Max_cycle;Signal;HPM_P1;HPM_P2
2022/12/21 00:01:26;;;;;;;7.15;2.90;;;;;;;-5.18;79.81;97545.66;5135056;27;20130;-63
2022/12/21 00:03:55;;;;;;;4.65;3.30;;;;;;;-5.18;79.64;97544.81;5135024;27;20497;-62
2022/12/21 00:06:26;;;;;;;3.80;3.00;;;;;;;-5.12;79.14;97545.91;5135000;27;20091;-64
2022/12/21 00:08:55;;;;;;;6.43;3.47;;;;;;;-5.12;79.04;97542.50;5134977;27;20096;-63
2022/12/21 00:11:24;;;;;;;5.47;3.13;;;;;;;-5.14;79.24;97545.00;5134975;27;20054;-61
2022/12/21 00:13:52;;;;;;;4.50;3.20;;;;;;;-5.22;80.34;97531.91;5134779;27;20048;-62
2022/12/21 00:16:21;;;;;;;8.32;3.38;;;;;;;-5.16;80.08;97536.38;5134749;27;20409;-63
2022/12/21 00:18:49;;;;;;;3.75;2.78;;;;;;;-5.26;80.14;97532.63;5134784;27;20043;-63
2022/12/21 00:21:18;;;;;;;6.72;3.10;;;;;;;-5.22;80.07;97529.38;5134665;27;20166;-62
2022/12/21 00:23:50;;;;;;;6.95;2.70;;;;;;;-5.22;79.59;97529.38;5135066;27;20051;-63
2022/12/21 00:26:19;;;;;;;5.63;2.75;;;;;;;-5.29;79.30;97529.03;5134685;27;20054;-59
2022/12/21 00:28:47;;;;;;;4.88;3.13;;;;;;;-5.33;79.50;97531.47;5134715;27;20130;-60
2022/12/21 00:31:16;;;;;;;3.72;2.45;;;;;;;-5.30;79.18;97533.28;5134805;27;20513;-64
2022/12/21 00:33:45;;;;;;;7.90;2.90;;;;;;;-5.27;79.56;97532.53;5134456;27;20129;-61
2022/12/21 00:36:15;;;;;;;3.78;2.55;;;;;;;-5.29;79.06;97521.41;5134427;27;20051;-64
2022/12/21 00:38:43;;;;;;;4.72;2.90;;;;;;;-5.32;79.70;97523.00;5134400;27;20043;-62
2022/12/21 00:41:15;;;;;;;3.03;2.15;;;;;;;-5.42;79.95;97522.59;5134429;27;20074;-60
2022/12/21 00:43:43;;;;;;;5.13;2.90;;;;;;;-5.47;80.32;97519.84;5134285;27;20484;-63
2022/12/21 00:46:16;;;;;;;6.25;2.97;;;;;;;-5.38;80.49;97516.78;5134286;27;20051;-61
2022/12/21 00:48:43;;;;;;;8.65;2.80;;;;;;;-5.36;80.17;97513.50;5134528;27;20450;-61
2022/12/21 00:51:12;;;;;;;4.18;3.03;;;;;;;-5.40;80.08;97506.53;5134232;27;20039;-59
2022/12/21 00:53:39;;;;;;;3.85;2.75;;;;;;;-5.41;80.11;97499.69;5134236;27;20462;-60
2022/12/21 00:56:08;;;;;;;4.95;2.78;;;;;;;-5.47;79.76;97491.78;5134148;27;20124;-63
2022/12/21 00:58:37;;;;;;;6.63;2.50;;;;;;;-5.45;79.49;97493.59;5134187;27;20054;-61
2022/12/21 01:01:07;;;;;;;9.75;2.25;;;;;;;-5.41;79.26;97497.13;5134208;27;20055;-62
2022/12/21 01:03:34;;;;;;;4.43;2.60;;;;;;;-5.44;79.59;97486.81;5134149;27;20043;-64
2022/12/21 01:06:01;;;;;;;3.72;2.13;;;;;;;-5.51;79.66;97477.19;5134030;27;20092;-63
2022/12/21 01:08:29;;;;;;;5.60;2.75;;;;;;;-5.59;80.21;97484.50;5134002;28;20430;-61
2022/12/21 01:11:01;;;;;;;5.85;3.03;;;;;;;-5.55;81.09;97482.94;5133943;28;20458;-61
2022/12/21 01:13:30;;;;;;;4.07;2.83;;;;;;;-5.55;80.88;97477.84;5133995;28;20062;-63
2022/12/21 01:15:59;;;;;;;6.53;2.83;;;;;;;-5.65;81.32;97466.41;5133923;28;20115;-62
2022/12/21 01:18:26;;;;;;;6.25;2.58;;;;;;;-5.64;81.54;97470.69;5133903;28;20123;-62
2022/12/21 01:20:55;;;;;;;4.63;2.58;;;;;;;-5.60;81.61;97475.97;5136542;27;20051;-60
2022/12/21 01:23:23;;;;;;;5.95;2.75;;;;;;;-5.54;81.80;97464.28;5138168;27;20074;-62
2022/12/21 01:25:51;;;;;;;6.45;3.30;;;;;;;-5.44;82.34;97461.31;5138233;27;20055;-62
2022/12/21 01:28:19;;;;;;;4.88;3.03;;;;;;;-5.39;81.89;97469.16;5138128;27;20468;-62
2022/12/21 01:30:46;;;;;;;6.13;2.95;;;;;;;-5.40;81.22;97464.81;5138084;27;20051;-61
2022/12/21 01:33:16;;;;;;;6.43;3.05;;;;;;;-5.42;81.51;97461.38;5138021;27;20074;-63
2022/12/21 01:35:44;;;;;;;6.28;2.75;;;;;;;-5.41;80.96;97461.44;5137974;27;20047;-60
2022/12/21 01:38:13;;;;;;;4.95;3.22;;;;;;;-5.43;80.83;97457.03;5138067;27;20047;-60
2022/12/21 01:40:40;;;;;;;5.20;2.58;;;;;;;-5.43;80.54;97457.94;5137897;27;20078;-63
2022/12/21 01:43:18;;;;;;;5.80;2.78;;;;;;;-5.47;80.39;97453.53;5137681;27;20053;-64
2022/12/21 01:45:48;;;;;;;4.30;2.80;;;;;;;-5.50;80.41;97453.41;5138088;27;20047;-62
2022/12/21 01:48:18;;;;;;;;;;;;;;;-5.58;80.74;97450.53;5138083;27;20485;-61
2022/12/21 01:50:51;;;;;;;5.97;2.80;;;;;;;-5.61;81.45;97442.75;5137683;27;20323;-65
2022/12/21 01:53:22;;;;;;;5.88;3.35;;;;;;;-5.65;81.41;97444.31;5137870;27;20279;-62
2022/12/21 01:55:51;;;;;;;5.57;2.80;;;;;;;-5.61;81.33;97436.00;5137417;27;20043;-63
2022/12/21 01:58:19;;;;;;;5.05;2.95;;;;;;;-5.53;80.51;97436.31;5137445;27;20481;-62
2022/12/21 02:00:46;;;;;;;6.22;3.38;;;;;;;-5.46;81.18;97424.66;5137417;27;20083;-62
2022/12/21 02:03:18;;;;;;;4.28;2.88;;;;;;;-5.38;81.76;97422.41;5137451;27;20050;-63
2022/12/21 02:05:50;;;;;;;5.65;2.25;;;;;;;-5.46;81.55;97420.44;5137358;27;20051;-60
2022/12/21 02:08:16;;;;;;;4.53;2.40;;;;;;;-5.47;81.49;97413.59;5137340;27;20458;-61
2022/12/21 02:10:44;;;;;;;4.20;2.38;;;;;;;-5.42;81.11;97420.56;5137501;27;20457;-64
2022/12/21 02:13:13;;;;;;;4.32;2.60;;;;;;;-5.41;79.92;97414.63;5137207;27;20122;-61
2022/12/21 02:15:56;;;;;;;4.85;2.60;;;;;;;-5.45;80.52;97416.16;5137199;27;20043;-62
2022/12/21 02:18:38;;;;;;;5.90;3.30;;;;;;;-5.46;80.63;97411.88;5137139;27;20481;-61
2022/12/21 02:21:22;;;;;;;4.47;2.75;;;;;;;-5.49;81.08;97420.31;5137149;27;20095;-62
2022/12/21 02:24:24;;;;;;;6.88;2.80;;;;;;;-5.53;81.15;97420.13;5137039;27;20058;-64
2022/12/21 02:27:08;;;;;;;4.82;2.90;;;;;;;-5.47;80.39;97407.63;5137117;27;20043;-62
2022/12/21 02:30:16;;;;;;;5.15;2.55;;;;;;;-5.49;79.84;97402.44;5136799;27;20047;-64
2022/12/21 02:33:02;;;;;;;3.83;2.67;;;;;;;-5.49;80.62;97397.34;5135772;27;20043;-62
2022/12/21 02:35:42;;;;;;;4.57;2.70;;;;;;;-5.48;80.91;97401.63;5136938;27;20129;-60
2022/12/21 02:38:18;;;;;;;;;;;;;;;-5.50;80.15;97397.28;5137181;27;20054;-61
2022/12/21 02:40:56;;;;;;;4.82;2.38;;;;;;;-5.61;80.35;97399.41;5136857;27;19919;-64
2022/12/21 02:46:18;;;;;;;5.85;2.70;;;;;;;-5.50;80.10;97394.75;5136655;27;20069;-62
2022/12/21 02:48:53;;;;;;;5.38;2.17;;;;;;;-5.49;79.87;97399.91;5136534;27;20483;-62
2022/12/21 02:51:24;;;;;;;3.08;2.47;;;;;;;-5.51;79.31;97398.09;5136731;27;20043;-60
2022/12/21 02:53:52;;;;;;;4.50;1.98;;;;;;;-5.55;78.96;97389.44;5136467;27;20074;-63
2022/12/21 02:56:21;;;;;;;5.15;2.78;;;;;;;-5.61;79.73;97386.66;5136417;27;20078;-62
2022/12/21 02:58:48;;;;;;;6.53;3.10;;;;;;;-5.75;80.31;97386.97;5136638;27;20043;-60
2022/12/21 03:01:32;;;;;;;5.88;2.70;;;;;;;-5.73;80.62;97385.38;5136286;27;20507;-62
2022/12/21 03:04:38;;;;;;;4.60;2.40;;;;;;;-5.63;80.44;97384.03;5136269;27;20051;-63
2022/12/21 03:07:39;;;;;;;5.72;2.53;;;;;;;-5.64;80.72;97383.97;5128913;27;20050;-63
2022/12/21 03:10:17;;;;;;;6.80;2.78;;;;;;;-5.69;80.32;97386.34;5136178;27;20122;-64
2022/12/21 03:12:54;;;;;;;7.63;2.60;;;;;;;-5.66;80.67;97376.28;5136130;27;20071;-65
2022/12/21 03:15:31;;;;;;;4.78;2.67;;;;;;;-5.73;80.56;97371.75;5136215;27;20180;-62
2022/12/21 03:18:05;;;;;;;5.20;2.40;;;;;;;-5.73;81.11;97374.28;5136061;27;20146;-63
2022/12/21 03:20:38;;;;;;;3.88;2.42;;;;;;;-5.84;81.13;97366.25;5136073;27;20046;-64
2022/12/21 03:23:13;;;;;;;5.40;2.95;;;;;;;-5.91;81.77;97370.19;5135917;27;20045;-62
2022/12/21 03:25:44;;;;;;;5.57;2.70;;;;;;;-5.89;82.06;97352.44;5135846;27;20436;-60
2022/12/21 03:28:16;;;;;;;5.88;2.72;;;;;;;-5.85;81.98;97354.28;5136114;27;20046;-62
2022/12/21 03:30:48;;;;;;;6.57;2.97;;;;;;;-5.78;81.76;97352.88;5135671;27;20051;-64
2022/12/21 03:33:19;;;;;;;8.23;2.42;;;;;;;-5.73;81.29;97347.13;5135673;27;20047;-61
2022/12/21 03:35:50;;;;;;;5.53;2.60;;;;;;;-5.67;81.82;97349.03;5135662;27;20043;-64
2022/12/21 03:38:22;;;;;;;4.78;2.25;;;;;;;-5.72;81.60;97351.41;5135766;27;20047;-62
2022/12/21 03:40:58;;;;;;;4.72;2.75;;;;;;;-5.75;81.36;97348.72;5135546;27;20047;-62
2022/12/21 03:43:30;;;;;;;8.73;3.28;;;;;;;-5.74;81.83;97352.16;5134816;27;20047;-64
2022/12/21 03:46:02;;;;;;;5.65;2.63;;;;;;;-5.75;82.11;97347.88;5135593;27;20043;-62
2022/12/21 03:48:35;;;;;;;4.38;2.83;;;;;;;-5.72;81.75;97348.00;5135410;27;20078;-61
2022/12/21 03:51:09;;;;;;;6.07;2.40;;;;;;;-5.68;80.98;97348.97;5135302;27;20131;-60
2022/12/21 03:53:47;;;;;;;4.47;2.35;;;;;;;-5.71;80.95;97342.09;5135346;27;20130;-63
2022/12/21 03:56:21;;;;;;;4.30;2.72;;;;;;;-5.65;80.36;97349.97;5135252;27;20096;-62
2022/12/21 03:58:48;;;;;;;2.58;2.08;;;;;;;-5.72;80.51;97353.94;5135279;27;20078;-63
2022/12/21 04:01:25;;;;;;;5.35;2.25;;;;;;;-5.76;80.63;97346.13;5135181;27;20039;-62
2022/12/21 04:03:58;;;;;;;5.15;2.35;;;;;;;-5.80;81.09;97350.25;5134995;27;20043;-61
2022/12/21 04:06:29;;;;;;;5.30;2.72;;;;;;;-5.77;81.33;97357.13;5135123;27;20043;-63
2022/12/21 04:08:58;;;;;;;5.35;2.65;;;;;;;-5.65;81.85;97359.31;5135012;27;20467;-63
2022/12/21 04:14:09;;;;;;;6.00;2.38;;;;;;;-5.68;81.01;97361.72;5135411;27;20112;-63
2022/12/21 04:16:36;;;;;;;6.00;2.58;;;;;;;-5.67;80.59;97353.25;5134843;27;20051;-62
2022/12/21 04:21:47;;;;;;;4.57;2.55;;;;;;;-5.70;79.87;97359.13;5135121;27;20058;-62
2022/12/21 04:29:44;;;;;;;3.83;2.08;;;;;;;-5.73;80.41;97352.22;5135012;27;20168;-64
2022/12/21 04:32:11;;;;;;;5.70;2.65;;;;;;;-5.76;80.83;97344.47;5134721;27;20040;-60
2022/12/21 04:34:38;;;;;;;4.28;2.50;;;;;;;-5.82;81.16;97346.75;5134708;27;20043;-62
2022/12/21 04:39:51;;;;;;;6.95;2.45;;;;;;;-5.75;81.34;97350.44;5134556;27;20061;-60
2022/12/21 04:42:18;;;;;;;5.38;2.83;;;;;;;-5.80;81.45;97345.16;5134251;27;20047;-60
2022/12/21 04:44:45;;;;;;;6.18;2.40;;;;;;;-5.77;81.65;97342.72;5134431;27;20461;-60
2022/12/21 04:47:12;;;;;;;3.58;2.03;;;;;;;-5.71;81.53;97342.97;5134437;27;20138;-62
2022/12/21 04:49:39;;;;;;;5.43;2.38;;;;;;;-5.72;81.37;97338.66;5134330;27;20051;-64
2022/12/21 04:52:06;;;;;;;2.67;2.10;;;;;;;-5.70;81.10;97336.16;5134194;27;20047;-62
2022/12/21 04:54:34;;;;;;;3.72;2.30;;;;;;;-5.66;80.26;97329.53;5133499;27;20545;-64
2022/12/21 04:57:03;;;;;;;2.83;2.40;;;;;;;-5.69;80.63;97324.31;5134129;27;20465;-61
2022/12/21 04:59:30;;;;;;;5.60;2.22;;;;;;;-5.64;80.82;97335.53;5134137;27;20561;-64
2022/12/21 05:01:58;;;;;;;3.50;2.22;;;;;;;-5.67;79.92;97326.09;5134223;27;20054;-63
2022/12/21 05:04:25;;;;;;;3.03;2.00;;;;;;;-5.64;79.59;97322.78;5134021;27;20546;-59
2022/12/21 05:06:54;;;;;;;3.83;2.17;;;;;;;-5.72;79.55;97325.91;5133977;27;20043;-61
2022/12/21 05:09:26;;;;;;;5.18;2.30;;;;;;;-5.81;80.17;97328.09;5133991;28;20052;-62
2022/12/21 05:11:54;;;;;;;3.05;2.17;;;;;;;-5.73;80.12;97325.84;5134036;28;20134;-61
2022/12/21 05:14:23;;;;;;;3.67;2.10;;;;;;;-5.74;79.64;97325.00;5133976;28;20050;-62
2022/12/21 05:16:51;;;;;;;5.70;2.50;;;;;;;-5.77;79.64;97329.09;5133873;28;20054;-59
2022/12/21 05:19:20;;;;;;;7.38;2.67;;;;;;;-5.80;80.14;97326.41;5134038;28;20079;-60
2022/12/21 05:21:47;;;;;;;5.00;2.60;;;;;;;-5.89;80.56;97321.84;5133997;28;20039;-63
2022/12/21 05:24:15;;;;;;;4.82;2.53;;;;;;;-5.88;81.37;97319.34;5133979;28;20071;-64
2022/12/21 05:26:43;;;;;;;3.63;2.17;;;;;;;-5.85;81.66;97316.03;5133736;28;20050;-59
2022/12/21 05:29:15;;;;;;;7.50;2.42;;;;;;;-5.85;81.34;97308.41;5133827;28;20126;-61
2022/12/21 05:31:44;;;;;;;3.15;2.03;;;;;;;-5.85;81.58;97308.41;5133770;28;20055;-61
2022/12/21 05:34:12;;;;;;;3.58;2.00;;;;;;;-5.81;82.01;97306.84;5133783;28;20442;-60
2022/12/21 05:36:39;;;;;;;6.25;2.10;;;;;;;-5.80;81.41;97300.94;5133774;28;20066;-63
2022/12/21 05:39:06;;;;;;;3.65;2.20;;;;;;;-5.76;81.43;97297.69;5133758;28;20597;-64
2022/12/21 05:41:33;;;;;;;3.15;2.08;;;;;;;-5.73;81.37;97297.81;5133742;28;20473;-61
2022/12/21 05:44:00;;;;;;;3.35;2.17;;;;;;;-5.66;81.00;97302.31;5133582;28;20560;-61
2022/12/21 05:46:27;;;;;;;3.95;2.00;;;;;;;-5.67;80.78;97292.06;5133675;28;20051;-60
2022/12/21 05:48:56;;;;;;;3.08;2.15;;;;;;;-5.61;80.32;97294.84;5133699;28;20082;-63
2022/12/21 05:51:25;;;;;;;6.05;2.80;;;;;;;-5.66;80.05;97304.03;5133574;28;20067;-62
2022/12/21 05:53:52;;;;;;;3.95;2.25;;;;;;;-5.61;80.43;97298.28;5133871;28;20050;-61
2022/12/21 05:56:19;;;;;;;6.80;3.20;;;;;;;-5.58;80.38;97298.41;5133875;28;20560;-63
2022/12/21 05:58:46;;;;;;;7.43;3.08;;;;;;;-5.55;80.63;97295.09;5133765;28;20116;-63
2022/12/21 06:01:13;;;;;;;10.02;4.47;;;;;;;-5.52;80.75;97289.22;5133548;28;20043;-59
2022/12/21 06:03:41;;;;;;;11.98;4.90;;;;;;;-5.51;80.71;97291.00;5133562;28;20051;-61
2022/12/21 06:06:11;;;;;;;7.45;3.70;;;;;;;-5.46;80.75;97295.44;5134509;27;20088;-62
2022/12/21 06:08:39;;;;;;;;;;;;;;;-5.38;80.40;97282.97;5137720;27;20511;-62
2022/12/21 06:11:07;;;;;;;4.45;2.22;;;;;;;-5.38;80.37;97292.31;5137328;27;19926;-63
2022/12/21 06:13:35;;;;;;;8.43;2.42;;;;;;;-5.33;80.56;97285.69;5137194;27;20039;-61
2022/12/21 06:16:04;;;;;;;6.00;2.55;;;;;;;-5.23;79.92;97284.34;5137163;27;20460;-62
2022/12/21 06:18:31;;;;;;;4.90;3.58;;;;;;;-5.13;80.01;97291.50;5137282;27;20054;-61
2022/12/21 06:20:58;;;;;;;6.07;2.28;;;;;;;-5.08;80.40;97300.19;5137253;27;20048;-61
2022/12/21 06:23:26;;;;;;;5.97;2.25;;;;;;;-4.98;80.27;97297.97;5137061;27;20069;-62
2022/12/21 06:25:56;;;;;;;9.85;1.95;;;;;;;-4.47;81.96;97301.41;5137009;27;20138;-63
2022/12/21 06:28:24;;;;;;;3.55;2.17;;;;;;;-2.83;79.31;97293.53;5137003;27;20039;-60
2022/12/21 06:30:52;;;;;;;3.80;1.75;;;;;;;-0.82;71.09;97294.66;5136953;27;20083;-62
2022/12/21 06:33:20;;;;;;;3.13;1.60;;;;;;;1.16;64.01;97287.38;5137055;27;20045;-62
2022/12/21 06:35:48;;;;;;;2.17;1.33;;;;;;;3.06;58.85;97287.94;5137014;27;20399;-64
2022/12/21 06:38:15;;;;;;;2.75;1.75;;;;;;;4.82;54.06;97278.53;5136795;27;20051;-67
2022/12/21 06:40:44;;;;;;;3.35;1.40;;;;;;;6.25;48.18;97272.50;5136862;27;20082;-66
2022/12/21 06:43:12;;;;;;;2.65;1.10;;;;;;;7.58;45.28;97276.19;5136691;27;20047;-65
2022/12/21 06:45:39;;;;;;;3.22;1.25;;;;;;;8.71;41.01;97273.53;5136651;27;20063;-63
2022/12/21 06:48:08;;;;;;;1.60;1.20;;;;;;;9.50;38.68;97270.22;5136723;27;20126;-61
2022/12/21 06:50:41;;;;;;;2.03;1.17;;;;;;;10.38;37.78;97268.19;5136802;27;20082;-65
2022/12/21 06:53:10;;;;;;;2.45;1.40;;;;;;;11.34;36.00;97275.19;5136687;27;20043;-65
2022/12/21 06:55:37;;;;;;;2.42;1.40;;;;;;;12.05;34.19;97261.69;5136367;27;20047;-64
2022/12/21 06:58:06;;;;;;;4.30;1.60;;;;;;;12.80;33.09;97259.22;5136463;27;20043;-64
2022/12/21 07:00:36;;;;;;;1.95;1.27;;;;;;;13.46;32.41;97259.44;5136644;27;20047;-64
2022/12/21 07:03:03;;;;;;;2.45;1.15;;;;;;;13.98;32.00;97248.69;5136357;27;20130;-63
2022/12/21 07:05:30;;;;;;;2.10;1.60;;;;;;;14.49;31.65;97248.34;5136299;27;20047;-62
2022/12/21 07:07:58;;;;;;;3.45;1.48;;;;;;;15.16;30.85;97247.25;5136255;27;20103;-66
2022/12/21 07:10:25;;;;;;;1.85;1.50;;;;;;;15.66;28.99;97250.25;5136175;27;20555;-65
2022/12/21 07:12:52;;;;;;;3.60;1.70;;;;;;;15.97;28.66;97248.81;5136085;27;20488;-62
2022/12/21 07:15:21;;;;;;;1.85;1.30;;;;;;;16.25;28.62;97241.28;5136119;27;20564;-63
2022/12/21 07:17:49;;;;;;;3.15;1.10;;;;;;;16.41;28.45;97241.41;5135125;27;20139;-64
2022/12/21 07:20:16;;;;;;;2.28;1.58;;;;;;;16.81;27.97;97233.19;5136023;27;20039;-63
2022/12/21 07:22:43;;;;;;;1.67;1.42;;;;;;;17.22;27.41;97233.75;5135931;27;20044;-65
2022/12/21 07:25:10;;;;;;;4.82;1.50;;;;;;;17.48;27.37;97239.38;5135947;27;20078;-63
2022/12/21 07:27:38;;;;;;;1.40;1.10;;;;;;;18.02;27.08;97238.16;5135852;27;20071;-66
2022/12/21 07:30:06;;;;;;;3.00;1.70;;;;;;;18.14;26.47;97242.81;5135698;27;20045;-64
2022/12/21 07:32:35;;;;;;;2.30;1.50;;;;;;;18.26;25.97;97241.22;5134793;27;20078;-66
2022/12/21 07:35:03;;;;;;;4.32;2.60;;;;;;;18.29;26.52;97240.19;5135633;27;20039;-64
2022/12/21 07:37:30;;;;;;;3.20;2.88;;;;;;;18.42;25.80;97246.47;5135648;27;20051;-66
2022/12/21 07:39:57;;;;;;;4.95;3.15;;;;;;;18.51;25.59;97245.09;5135825;27;20401;-63
2022/12/21 07:42:24;;;;;;;4.13;2.63;;;;;;;18.42;26.01;97242.97;5135482;27;20043;-62
2022/12/21 07:44:51;;;;;;;4.40;2.63;;;;;;;19.00;24.73;97248.38;5135725;27;20051;-65
2022/12/21 07:47:18;;;;;;;4.82;2.90;;;;;;;19.44;24.24;97259.00;5135316;27;20515;-65
2022/12/21 07:49:47;;;;;;;4.07;2.78;;;;;;;19.35;24.57;97249.81;5135386;27;20142;-65
2022/12/21 07:52:14;;;;;;;6.10;2.90;;;;;;;19.56;24.83;97252.91;5135431;27;20127;-63
2022/12/21 07:54:41;;;;;;;6.38;2.67;;;;;;;19.85;24.18;97256.44;5135357;27;20054;-64
2022/12/21 07:57:08;;;;;;;3.35;2.50;;;;;;;20.30;23.99;97257.09;5135191;27;20569;-64
2022/12/21 07:59:35;;;;;;;5.90;4.43;;;;;;;20.78;23.13;97250.38;5135153;27;20082;-63
2022/12/21 08:02:03;;;;;;;4.32;2.55;;;;;;;20.89;23.29;97252.25;5135218;27;20133;-63
2022/12/21 08:04:31;;;;;;;3.85;2.67;;;;;;;20.92;22.87;97251.25;5135173;27;20051;-63
2022/12/21 08:07:00;;;;;;;2.90;2.47;;;;;;;20.95;23.73;97245.72;5135119;27;20129;-63
2022/12/21 08:09:27;;;;;;;4.03;2.60;;;;;;;21.16;23.04;97253.16;5135123;27;20043;-64
2022/12/21 08:11:54;;;;;;;5.93;3.00;;;;;;;20.81;23.52;97243.97;5135008;27;20051;-63
2022/12/21 08:14:22;;;;;;;4.22;2.80;;;;;;;19.68;24.86;97245.13;5135027;27;20043;-65
2022/12/21 08:16:49;;;;;;;6.18;2.83;;;;;;;18.75;25.89;97238.44;5134775;27;20049;-62
2022/12/21 08:19:16;;;;;;;5.40;2.53;;;;;;;18.39;26.62;97236.06;5134842;27;20130;-63
2022/12/21 08:21:43;;;;;;;3.55;2.80;;;;;;;18.37;26.82;97234.47;5134778;27;20124;-62
2022/12/21 08:24:13;;;;;;;4.13;3.05;;;;;;;18.80;26.46;97233.69;5134668;27;20046;-63
2022/12/21 08:26:40;;;;;;;3.97;2.80;;;;;;;18.74;26.55;97226.97;5134597;27;20047;-64
2022/12/21 08:29:07;;;;;;;3.88;2.75;;;;;;;18.88;26.19;97220.84;5134666;27;20126;-62
2022/12/21 08:31:37;;;;;;;2.90;2.22;;;;;;;19.28;26.21;97227.28;5134761;27;20043;-62
2022/12/21 08:34:03;;;;;;;6.10;2.70;;;;;;;19.03;27.27;97220.84;5134611;27;20049;-64
2022/12/21 08:36:31;;;;;;;3.30;2.42;;;;;;;18.26;28.05;97214.75;5134621;27;20053;-62
2022/12/21 08:39:00;;;;;;;4.85;2.78;;;;;;;17.58;29.13;97205.38;5134493;27;20049;-62
2022/12/21 08:41:28;;;;;;;4.07;2.50;;;;;;;17.12;29.73;97204.31;5134439;27;20043;-63
2022/12/21 08:43:55;;;;;;;5.13;2.95;;;;;;;16.52;30.66;97204.72;5134166;27;20131;-63
2022/12/21 08:46:22;;;;;;;3.92;2.35;;;;;;;15.64;31.89;97200.22;5134324;27;20051;-64
2022/12/21 08:48:50;;;;;;;3.17;2.42;;;;;;;15.09;32.49;97201.88;5134333;27;20051;-64
2022/12/21 08:51:17;;;;;;;3.08;2.28;;;;;;;15.03;31.91;97200.38;5134260;27;20043;-63
2022/12/21 08:53:44;;;;;;;3.95;2.20;;;;;;;15.00;31.27;97197.03;5134386;27;20051;-64
2022/12/21 08:56:11;;;;;;;3.83;2.30;;;;;;;14.10;32.65;97178.94;5134226;27;20085;-62
2022/12/21 08:58:40;;;;;;;3.70;2.30;;;;;;;13.42;33.80;97182.50;5134183;27;20051;-62
2022/12/21 09:01:07;;;;;;;3.50;2.17;;;;;;;13.36;34.71;97186.22;5134279;27;20047;-62
2022/12/21 09:03:34;;;;;;;2.97;2.28;;;;;;;12.78;34.99;97184.88;5134328;27;20176;-63
2022/12/21 09:06:03;;;;;;;3.63;2.33;;;;;;;11.92;36.07;97181.72;5133988;27;20086;-63
2022/12/21 09:08:31;;;;;;;4.95;2.45;;;;;;;11.37;37.21;97167.69;5134326;27;20513;-63
2022/12/21 09:11:02;;;;;;;2.97;2.25;;;;;;;10.56;38.87;97163.06;5134049;28;20452;-61
2022/12/21 09:13:30;;;;;;;2.95;2.08;;;;;;;9.59;42.30;97162.03;5133958;28;20081;-62
2022/12/21 09:15:58;;;;;;;3.45;2.33;;;;;;;8.83;43.26;97152.44;5134079;28;20092;-64
2022/12/21 09:18:25;;;;;;;3.08;2.42;;;;;;;8.24;43.99;97145.72;5133926;28;20047;-63
2022/12/21 09:20:54;;;;;;;4.18;2.42;;;;;;;7.90;46.83;97149.81;5133951;28;20090;-61
2022/12/21 09:23:21;;;;;;;2.60;2.15;;;;;;;7.61;46.94;97140.75;5134174;28;20058;-62
2022/12/21 09:25:49;;;;;;;4.32;2.25;;;;;;;7.25;46.51;97140.47;5134257;28;20047;-61
2022/12/21 09:28:16;;;;;;;6.07;2.67;;;;;;;7.25;47.74;97149.09;5133830;28;20404;-62
2022/12/21 09:30:43;;;;;;;7.22;4.28;;;;;;;7.19;46.37;97149.19;5133702;28;20047;-64
2022/12/21 09:33:12;;;;;;;6.07;2.72;;;;;;;6.90;48.32;97142.69;5133924;28;20052;-63
2022/12/21 09:35:40;;;;;;;5.97;2.85;;;;;;;6.95;48.30;97138.25;5133771;28;20471;-62
2022/12/21 09:38:07;;;;;;;3.92;2.83;;;;;;;7.00;48.74;97126.06;5133778;28;20043;-63
2022/12/21 09:40:34;;;;;;;6.00;3.08;;;;;;;7.09;49.07;97130.25;5133737;27;20074;-64
2022/12/21 09:43:14;;;;;;;5.05;3.10;;;;;;;6.82;48.48;97125.44;5137834;27;20055;-64
2022/12/21 09:45:52;;;;;;;3.92;2.63;;;;;;;6.78;48.83;97117.69;5137890;27;20055;-64
2022/12/21 09:48:24;;;;;;;7.03;2.78;;;;;;;6.40;49.34;97114.69;5137756;27;20043;-61
2022/12/21 09:50:57;;;;;;;5.97;3.30;;;;;;;6.38;48.78;97114.72;5137779;27;20139;-63
2022/12/21 09:53:28;;;;;;;6.90;2.75;;;;;;;6.36;49.02;97116.50;5137628;27;20122;-62
2022/12/21 09:55:58;;;;;;;4.30;2.60;;;;;;;6.45;49.57;97107.72;5137655;27;20541;-63
2022/12/21 09:58:29;;;;;;;;;;;;;;;6.56;50.14;97112.75;5138009;27;20043;-65
2022/12/21 10:01:05;;;;;;;4.65;3.15;;;;;;;6.67;48.63;97116.09;5137413;27;19919;-62
2022/12/21 10:03:46;;;;;;;5.80;3.40;;;;;;;6.49;49.67;97112.00;5137719;27;20500;-63
2022/12/21 10:06:49;;;;;;;5.25;3.47;;;;;;;6.24;50.09;97111.41;5137554;27;20123;-64
2022/12/21 10:09:32;;;;;;;6.13;3.10;;;;;;;6.23;50.74;97110.56;5133701;27;20051;-65
2022/12/21 10:12:14;;;;;;;6.28;2.95;;;;;;;6.39;50.21;97103.47;5137321;27;20043;-63
2022/12/21 10:14:51;;;;;;;8.25;3.00;;;;;;;6.30;49.13;97093.16;5137444;27;20054;-62
2022/12/21 10:17:33;;;;;;;5.05;3.42;;;;;;;6.29;51.23;97094.91;5137107;27;20051;-63
2022/12/21 10:20:11;;;;;;;8.57;3.38;;;;;;;6.12;50.87;97095.13;5137143;27;20043;-64
2022/12/21 10:22:41;;;;;;;5.32;3.28;;;;;;;6.29;49.78;97092.28;5137129;27;20099;-62
2022/12/21 10:25:16;;;;;;;5.05;2.95;;;;;;;6.41;49.82;97083.50;5137106;27;20071;-64
2022/12/21 10:27:46;;;;;;;6.95;3.35;;;;;;;6.50;50.68;97079.06;5137039;27;20049;-63
2022/12/21 10:30:15;;;;;;;6.35;3.92;;;;;;;6.51;49.98;97072.97;5137062;27;20039;-63
2022/12/21 10:32:47;;;;;;;10.43;3.72;;;;;;;6.51;50.26;97071.25;5136880;27;20456;-64
2022/12/21 10:35:21;;;;;;;5.38;3.53;;;;;;;6.48;51.98;97068.69;5136871;27;20458;-63
2022/12/21 10:37:50;;;;;;;7.45;3.95;;;;;;;6.43;51.23;97055.75;5136773;27;20047;-64
2022/12/21 10:40:18;;;;;;;5.10;3.13;;;;;;;6.35;51.84;97054.97;5136855;27;20058;-62
2022/12/21 10:42:50;;;;;;;6.75;3.65;;;;;;;6.28;51.80;97048.13;5136590;27;20111;-63
2022/12/21 10:45:19;;;;;;;4.85;3.17;;;;;;;6.35;50.77;97049.78;5136727;27;20043;-65
2022/12/21 10:47:46;;;;;;;5.53;3.33;;;;;;;6.27;51.63;97047.31;5136563;27;20476;-65
2022/12/21 10:50:16;;;;;;;4.30;3.40;;;;;;;6.19;51.46;97046.53;5136746;27;20103;-62
2022/12/21 10:52:47;;;;;;;4.65;3.60;;;;;;;6.21;52.67;97043.91;5135285;27;20126;-61
2022/12/21 10:55:36;;;;;;;6.85;3.65;;;;;;;6.19;52.93;97038.72;5136470;27;20046;-62
2022/12/21 10:58:13;;;;;;;5.72;3.88;;;;;;;6.14;52.46;97035.34;5130475;27;20058;-62
2022/12/21 11:00:41;;;;;;;4.72;3.35;;;;;;;6.09;52.08;97035.41;5136430;27;20065;-63
2022/12/21 11:03:24;;;;;;;6.18;3.92;;;;;;;6.08;52.86;97031.06;5136295;27;20082;-64
2022/12/21 11:05:51;;;;;;;6.28;3.83;;;;;;;5.99;53.40;97041.53;5136378;27;20463;-64
2022/12/21 11:08:25;;;;;;;8.63;4.20;;;;;;;5.92;53.61;97028.63;5136479;27;20047;-64
2022/12/21 11:10:55;;;;;;;6.72;4.40;;;;;;;5.90;54.53;97024.34;5136172;27;20078;-64
2022/12/21 11:13:26;;;;;;;5.82;3.80;;;;;;;5.94;54.46;97036.41;5136508;27;20051;-63
2022/12/21 11:16:01;;;;;;;6.05;4.07;;;;;;;5.88;53.56;97031.28;5136025;27;20039;-62
2022/12/21 11:18:37;;;;;;;10.25;4.53;;;;;;;5.72;53.99;97028.84;5135919;27;20145;-62
2022/12/21 11:21:12;;;;;;;7.78;4.60;;;;;;;5.77;54.32;97024.47;5135876;27;20476;-63
2022/12/21 11:23:41;;;;;;;6.57;4.50;;;;;;;5.86;54.99;97018.31;5136006;27;20126;-64
2022/12/21 11:26:15;;;;;;;6.20;4.53;;;;;;;5.78;54.97;97020.97;5135841;27;20047;-65
2022/12/21 11:28:43;;;;;;;5.80;4.60;;;;;;;5.71;55.83;97024.53;5135838;27;20075;-63
2022/12/21 11:31:10;;;;;;;6.13;4.65;;;;;;;5.69;56.16;97023.69;5135700;27;20480;-63
2022/12/21 11:33:38;;;;;;;5.72;4.40;;;;;;;5.74;56.06;97021.03;5135757;27;20039;-63
2022/12/21 11:36:12;;;;;;;10.65;4.55;;;;;;;5.78;56.38;97020.97;5135675;27;20046;-65
2022/12/21 11:38:42;;;;;;;8.82;4.13;;;;;;;5.80;56.06;97023.56;5135482;27;20055;-65
2022/12/21 11:41:27;;;;;;;8.75;5.13;;;;;;;5.78;55.98;97017.53;5135558;27;20075;-63
2022/12/21 11:43:55;;;;;;;9.43;5.60;;;;;;;5.82;56.02;97019.22;5135375;27;20059;-63
2022/12/21 11:46:35;;;;;;;7.00;4.95;;;;;;;5.67;56.21;97015.94;5135492;27;20401;-62
2022/12/21 11:49:23;;;;;;;9.00;5.57;;;;;;;5.71;56.67;97011.53;5135374;27;20050;-65
2022/12/21 11:51:59;;;;;;;9.80;6.68;;;;;;;5.71;56.86;97011.53;5135470;27;20096;-65
2022/12/21 11:54:42;;;;;;;7.72;5.25;;;;;;;5.66;56.38;97014.19;5135360;27;20484;-65
2022/12/21 11:57:21;;;;;;;6.97;4.57;;;;;;;5.43;57.03;97007.53;5135323;27;20050;-62
2022/12/21 12:00:02;;;;;;;6.00;5.10;;;;;;;5.37;57.77;97001.50;5135196;27;20074;-64
2022/12/21 12:03:15;;;;;;;7.57;5.35;;;;;;;5.33;57.23;96999.84;5135088;27;20043;-65
2022/12/21 12:05:55;;;;;;;9.63;5.22;;;;;;;5.27;58.25;96999.00;5134777;27;20052;-65
2022/12/21 12:08:39;;;;;;;7.40;5.15;;;;;;;5.22;56.86;97002.53;5135189;27;20519;-64
2022/12/21 12:11:21;;;;;;;9.35;6.35;;;;;;;5.14;58.10;97000.00;5134918;27;20047;-65